createdAt,value
2023-05-15T06:13:09.354Z,16.55
2023-05-15T06:15:37.659Z,17.77
2023-05-15T06:18:06.547Z,17.27
2023-05-15T06:20:34.777Z,15.23
2023-05-15T06:23:02.836Z,15.88
2023-05-15T06:25:32.306Z,15.50
2023-05-15T06:28:00.177Z,14.95
2023-05-15T06:30:29.622Z,13.45
2023-05-15T06:32:57.765Z,12.35
2023-05-15T06:35:26.084Z,14.75
2023-05-15T06:37:55.412Z,15.50
2023-05-15T06:40:24.729Z,13.38
2023-05-15T06:42:52.910Z,13.73
2023-05-15T06:45:21.606Z,11.85
2023-05-15T06:47:51.123Z,12.10
2023-05-15T06:50:19.110Z,12.32
2023-05-15T06:52:47.018Z,11.60
2023-05-15T06:55:15.640Z,12.40
2023-05-15T06:57:43.860Z,11.35
2023-05-15T07:00:13.094Z,10.77
2023-05-15T07:05:50.045Z,10.95
2023-05-15T07:08:18.063Z,11.38
2023-05-15T07:10:46.232Z,12.10
2023-05-15T07:13:14.276Z,9.15
2023-05-15T07:15:42.633Z,11.07
2023-05-15T07:18:10.900Z,11.25
2023-05-15T07:20:39.297Z,9.27
2023-05-15T07:23:09.140Z,9.23
2023-05-15T07:25:37.344Z,8.93
2023-05-15T07:28:05.776Z,8.95
2023-05-15T07:30:33.932Z,8.57
2023-05-15T07:33:02.026Z,7.68
2023-05-15T07:35:30.743Z,8.00
2023-05-15T07:37:59.416Z,8.27
2023-05-15T07:40:29.234Z,8.68
2023-05-15T07:42:58.418Z,7.65
2023-05-15T07:45:26.966Z,7.95
2023-05-15T07:47:56.351Z,8.63
2023-05-15T07:50:24.612Z,8.13
2023-05-15T07:52:57.038Z,8.05
2023-05-15T07:55:25.270Z,6.88
2023-05-15T07:57:55.291Z,8.20
2023-05-15T08:00:23.523Z,8.68
2023-05-15T08:02:51.930Z,5.88
2023-05-15T08:08:41.997Z,6.03
2023-05-15T08:14:13.115Z,8.07
2023-05-15T08:19:11.170Z,5.55
2023-05-15T08:21:41.382Z,5.60
2023-05-15T08:27:36.884Z,5.88
2023-05-15T08:30:10.465Z,4.25
2023-05-15T08:32:39.020Z,5.70
2023-05-15T08:35:24.243Z,5.15
2023-05-15T08:37:54.208Z,5.35
2023-05-15T08:40:38.542Z,5.82
2023-05-15T08:43:15.220Z,4.97
2023-05-15T08:45:45.748Z,6.13
2023-05-15T08:48:19.570Z,4.65
2023-05-15T08:51:08.620Z,4.47
2023-05-15T08:53:37.474Z,6.20
2023-05-15T08:59:32.851Z,5.72
2023-05-15T09:02:03.038Z,5.72
2023-05-15T09:04:34.610Z,5.85
2023-05-15T09:10:04.884Z,5.50
2023-05-15T09:12:48.828Z,5.35
2023-05-15T09:15:23.073Z,5.60
2023-05-15T09:17:54.149Z,4.13
2023-05-15T09:20:32.775Z,6.93
2023-05-15T09:23:10.530Z,4.43
2023-05-15T09:25:42.948Z,5.45
2023-05-15T09:28:26.227Z,4.80
2023-05-15T09:30:59.851Z,5.22
2023-05-15T09:33:34.329Z,5.35
2023-05-15T09:36:02.711Z,5.25
2023-05-15T09:38:33.293Z,5.68
2023-05-15T09:41:06.031Z,5.53
2023-05-15T09:43:36.360Z,4.50
2023-05-15T09:46:05.355Z,4.85
2023-05-15T09:48:36.215Z,3.80
2023-05-15T09:51:08.070Z,5.45
2023-05-15T09:53:38.787Z,3.97
2023-05-15T09:56:06.921Z,5.55
2023-05-15T09:58:36.543Z,4.72
2023-05-15T10:01:04.620Z,5.10
2023-05-15T10:03:48.754Z,4.93
2023-05-15T10:06:21.305Z,4.60
2023-05-15T10:08:53.440Z,5.43
2023-05-15T10:11:22.668Z,7.03
2023-05-15T10:13:50.825Z,4.25
2023-05-15T10:16:22.674Z,4.35
2023-05-15T10:18:53.103Z,5.03
2023-05-15T10:21:23.989Z,4.20
2023-05-15T10:23:53.188Z,4.88
2023-05-15T10:26:25.600Z,4.85
2023-05-15T10:28:55.141Z,4.47
2023-05-15T10:31:24.593Z,4.25
2023-05-15T10:33:53.518Z,5.07
2023-05-15T10:36:24.763Z,4.63
2023-05-15T10:38:53.709Z,8.30
2023-05-15T10:41:22.537Z,14.70
2023-05-15T10:43:50.945Z,6.25
2023-05-15T10:46:19.077Z,15.93
2023-05-15T10:48:47.082Z,5.65
2023-05-15T10:51:17.081Z,7.10
2023-05-15T10:53:47.571Z,4.90
2023-05-15T10:56:20.450Z,5.20
2023-05-15T10:58:55.544Z,6.20
2023-05-15T11:01:32.502Z,6.13
2023-05-15T11:04:13.614Z,5.55
2023-05-15T11:06:45.228Z,7.13
2023-05-15T11:09:48.979Z,5.45
2023-05-15T11:15:35.622Z,7.50
2023-05-15T11:18:06.411Z,5.07
2023-05-15T11:20:46.510Z,4.32
2023-05-15T11:23:41.304Z,5.15
2023-05-15T11:26:43.758Z,7.35
2023-05-15T11:29:26.673Z,5.78
2023-05-15T11:31:54.743Z,5.47
2023-05-15T11:34:32.687Z,4.75
2023-05-15T11:37:01.106Z,5.47
2023-05-15T11:39:29.712Z,5.70
2023-05-15T11:42:01.113Z,3.75
2023-05-15T11:44:32.114Z,4.95
2023-05-15T11:47:01.015Z,4.50
2023-05-15T11:49:44.054Z,4.85
2023-05-15T11:52:13.532Z,4.20
2023-05-15T11:54:41.837Z,4.10
2023-05-15T11:57:09.908Z,5.28
2023-05-15T11:59:42.233Z,5.05
2023-05-15T12:02:15.865Z,3.90
2023-05-15T12:04:43.736Z,2.78
2023-05-15T12:07:13.386Z,3.17
2023-05-15T12:09:42.956Z,3.22
2023-05-15T12:12:20.756Z,2.50
2023-05-15T12:14:50.040Z,3.67
2023-05-15T12:17:19.729Z,3.97
2023-05-15T12:19:48.039Z,3.95
2023-05-15T12:22:16.129Z,4.47
2023-05-15T12:24:44.117Z,2.92
2023-05-15T12:27:12.512Z,2.53
2023-05-15T12:29:41.111Z,3.40
2023-05-15T12:32:11.504Z,6.25
2023-05-15T12:34:39.937Z,2.10
2023-05-15T12:37:12.730Z,2.63
2023-05-15T12:39:51.920Z,1.65
2023-05-15T12:42:19.974Z,1.95
2023-05-15T12:44:51.192Z,2.15
2023-05-15T12:47:25.569Z,1.80
2023-05-15T12:49:58.085Z,1.85
2023-05-15T12:52:29.762Z,1.60
2023-05-15T12:55:01.305Z,1.65
2023-05-15T12:57:29.148Z,1.77
2023-05-15T12:59:57.099Z,2.35
2023-05-15T13:09:05.765Z,4.28
2023-05-15T13:11:34.899Z,4.35
2023-05-15T13:14:09.657Z,4.65
2023-05-15T13:16:39.031Z,4.50
2023-05-15T13:19:10.575Z,4.30
2023-05-15T13:21:39.825Z,4.45
2023-05-15T13:24:10.885Z,4.65
2023-05-15T13:26:39.656Z,3.83
2023-05-15T13:29:07.732Z,6.43
2023-05-15T13:31:35.894Z,3.17
2023-05-15T13:34:06.692Z,4.20
2023-05-15T13:36:34.998Z,5.32
2023-05-15T13:39:04.199Z,4.38
2023-05-15T13:41:33.479Z,5.22
2023-05-15T13:44:01.484Z,3.65
2023-05-15T13:46:29.619Z,6.55
2023-05-15T13:48:57.970Z,2.97
2023-05-15T13:51:25.994Z,3.22
2023-05-15T13:53:53.897Z,6.25
2023-05-15T13:56:22.506Z,3.47
2023-05-15T13:58:51.978Z,4.25
2023-05-15T14:01:20.438Z,3.53
2023-05-15T14:03:50.195Z,7.20
2023-05-15T14:06:18.146Z,4.10
2023-05-15T14:08:45.960Z,3.83
2023-05-15T14:11:13.842Z,3.30
2023-05-15T14:13:42.342Z,3.20
2023-05-15T14:16:11.550Z,3.10
2023-05-15T14:18:39.575Z,4.20
2023-05-15T14:21:07.722Z,2.95
2023-05-15T14:23:36.043Z,4.13
2023-05-15T14:26:03.942Z,3.75
2023-05-15T14:28:31.839Z,2.40
2023-05-15T14:31:16.807Z,4.07
2023-05-15T14:33:46.370Z,3.83
2023-05-15T14:36:14.266Z,2.85
2023-05-15T14:38:45.583Z,3.95
2023-05-15T14:41:13.575Z,2.78
2023-05-15T14:43:41.712Z,4.05
2023-05-15T14:46:11.370Z,2.35
2023-05-15T14:48:39.554Z,2.42
2023-05-15T14:51:09.448Z,2.40
2023-05-15T14:53:37.491Z,3.08
2023-05-15T14:56:06.180Z,3.33
2023-05-15T14:58:34.095Z,2.85
2023-05-15T15:01:02.372Z,3.38
2023-05-15T15:03:34.041Z,2.13
2023-05-15T15:06:02.361Z,2.60
2023-05-15T15:08:31.755Z,3.72
2023-05-15T15:10:59.695Z,3.40
2023-05-15T15:13:29.486Z,2.22
2023-05-15T15:15:59.457Z,3.88
2023-05-15T15:18:27.758Z,2.50
2023-05-15T15:20:55.626Z,2.83
2023-05-15T15:23:23.849Z,3.10
2023-05-15T15:25:52.988Z,2.25
2023-05-15T15:28:20.847Z,2.95
2023-05-15T15:30:48.739Z,2.88
2023-05-15T15:33:16.545Z,3.08
2023-05-15T15:35:44.380Z,3.05
2023-05-15T15:38:13.300Z,4.63
2023-05-15T15:40:41.905Z,3.28
2023-05-15T15:43:11.299Z,3.97
2023-05-15T15:45:39.181Z,3.53
